Time;durP1;ratioP1;P1;durP2;ratioP2;P2;SDS_P1;SDS_P2;PMS_P1;PMS_P2;Temp;Humidity;BMP_temperature;BMP_pressure;BME280_temperature;BME280_humidity;BME280_pressure;Samples;Min_cycle;Max_cycle;Signal;HPM_P1;HPM_P2
2022/05/14 00:01:13;;;;;;;19.95;13.57;;;19.10;95.80;;;;;;5074249;28;20029;-70
2022/05/14 00:03:41;;;;;;;18.25;13.15;;;19.10;95.70;;;;;;5074196;28;20486;-70
2022/05/14 00:06:19;;;;;;;18.23;12.25;;;19.10;95.70;;;;;;5074359;28;20038;-71
2022/05/14 00:08:47;;;;;;;17.08;11.65;;;19.30;96.20;;;;;;5074143;28;20463;-72
2022/05/14 00:14:03;;;;;;;13.73;10.55;;;19.60;94.80;;;;;;5067244;28;20120;-71
2022/05/14 00:16:32;;;;;;;15.25;10.70;;;19.40;94.90;;;;;;5074332;28;20043;-70
2022/05/14 00:19:01;;;;;;;14.82;11.30;;;19.50;95.00;;;;;;5073903;28;20082;-72
2022/05/14 00:21:28;;;;;;;15.55;10.48;;;19.50;94.90;;;;;;5074120;28;20025;-72
2022/05/14 00:23:58;;;;;;;17.13;10.48;;;19.60;95.10;;;;;;5073691;28;20104;-72
2022/05/14 00:26:26;;;;;;;18.60;11.90;;;19.50;94.70;;;;;;5073899;28;20041;-71
2022/05/14 00:28:53;;;;;;;17.17;10.77;;;19.60;94.90;;;;;;5073806;28;20052;-72
2022/05/14 00:31:23;;;;;;;15.85;11.93;;;19.70;94.90;;;;;;5070380;28;20482;-72
2022/05/14 00:33:51;;;;;;;16.02;12.48;;;19.90;94.30;;;;;;5073413;28;20024;-73
2022/05/14 00:36:18;;;;;;;14.63;11.50;;;20.00;93.90;;;;;;5073743;28;20028;-72
2022/05/14 00:38:45;;;;;;;17.35;13.13;;;20.10;93.90;;;;;;5073406;28;20029;-71
2022/05/14 00:41:13;;;;;;;16.08;13.38;;;20.10;93.60;;;;;;5073365;28;20425;-71
2022/05/14 00:43:53;;;;;;;18.27;14.35;;;20.20;93.50;;;;;;5073371;28;20476;-71
2022/05/14 00:46:45;;;;;;;14.85;12.45;;;20.40;93.70;;;;;;5073487;28;20555;-71
2022/05/14 00:49:15;;;;;;;14.48;11.45;;;20.60;92.70;;;;;;5072959;28;20025;-72
2022/05/14 00:51:46;;;;;;;16.58;11.30;;;20.60;92.60;;;;;;5073293;28;20049;-71
2022/05/14 00:54:17;;;;;;;13.50;10.38;;;20.60;92.70;;;;;;5073338;28;20086;-71
2022/05/14 00:56:54;;;;;;;15.80;10.10;;;20.80;92.60;;;;;;5073310;28;20020;-71
2022/05/14 00:59:24;;;;;;;12.77;9.90;;;20.90;92.00;;;;;;5071988;28;20394;-71
2022/05/14 01:01:52;;;;;;;12.05;10.43;;;21.10;91.50;;;;;;5073207;28;20042;-71
2022/05/14 01:04:22;;;;;;;12.93;9.68;;;21.20;91.40;;;;;;5068698;28;20087;-71
2022/05/14 01:06:58;;;;;;;14.18;9.82;;;21.10;91.70;;;;;;5066243;28;20032;-71
2022/05/14 01:09:26;;;;;;;14.20;10.68;;;21.40;91.40;;;;;;5060452;28;20087;-71
2022/05/14 01:11:54;;;;;;;10.55;8.18;;;21.80;90.40;;;;;;5072841;28;20032;-71
2022/05/14 01:14:22;;;;;;;9.88;8.75;;;22.00;89.70;;;;;;5071671;28;20606;-73
2022/05/14 01:16:51;;;;;;;10.27;9.15;;;22.30;88.80;;;;;;5072941;28;20033;-71
2022/05/14 01:19:19;;;;;;;10.65;8.43;;;22.40;86.70;;;;;;5072850;28;20067;-72
2022/05/14 01:22:20;;;;;;;12.13;9.07;;;22.50;87.60;;;;;;5064532;28;20471;-71
2022/05/14 01:27:54;;;;;;;10.13;8.63;;;22.70;86.60;;;;;;5072704;28;20035;-72
2022/05/14 01:30:21;;;;;;;7.80;7.00;;;23.00;85.00;;;;;;5072388;28;20025;-71
2022/05/14 01:33:04;;;;;;;8.85;7.00;;;23.20;84.00;;;;;;5072324;28;20032;-72
2022/05/14 01:35:37;;;;;;;7.82;6.57;;;23.40;83.20;;;;;;5072640;28;20048;-71
2022/05/14 01:38:05;;;;;;;16.98;7.70;;;23.50;83.60;;;;;;5069940;28;20423;-70
2022/05/14 01:40:33;;;;;;;9.15;7.65;;;23.70;81.80;;;;;;5064284;28;20123;-71
2022/05/14 01:43:00;;;;;;;8.98;7.28;;;23.90;79.60;;;;;;5072580;28;20463;-71
2022/05/14 01:45:28;;;;;;;9.02;6.80;;;23.70;81.70;;;;;;5072613;28;20028;-71
2022/05/14 01:47:55;;;;;;;8.73;7.80;;;23.50;82.20;;;;;;5071954;28;20103;-71
2022/05/14 01:50:23;;;;;;;8.18;6.93;;;23.50;82.00;;;;;;5072488;28;20107;-72
2022/05/14 01:52:50;;;;;;;7.47;6.20;;;23.80;82.20;;;;;;5071877;28;20068;-71
2022/05/14 01:55:17;;;;;;;7.03;6.25;;;24.50;83.40;;;;;;5068165;28;20037;-72
2022/05/14 01:57:45;;;;;;;8.68;5.90;;;25.00;79.10;;;;;;5068296;28;20150;-72
2022/05/14 02:00:16;;;;;;;8.10;7.13;;;25.10;77.90;;;;;;5072468;28;20028;-73
2022/05/14 02:02:47;;;;;;;8.10;6.50;;;25.40;79.40;;;;;;5072410;28;20021;-73
2022/05/14 02:05:15;;;;;;;6.68;5.78;;;25.60;75.70;;;;;;5071038;28;20024;-72
2022/05/14 02:07:43;;;;;;;6.72;6.03;;;25.60;76.90;;;;;;5072338;28;20020;-73
2022/05/14 02:10:11;;;;;;;5.72;5.18;;;25.80;74.70;;;;;;5072142;28;20020;-71
2022/05/14 02:12:40;;;;;;;8.50;6.63;;;26.00;77.60;;;;;;5067264;28;20023;-72
2022/05/14 02:15:07;;;;;;;7.07;5.88;;;26.20;73.20;;;;;;5072186;28;20067;-72
2022/05/14 02:17:35;;;;;;;6.50;5.75;;;25.80;74.80;;;;;;5072176;28;20032;-71
2022/05/14 02:20:03;;;;;;;7.82;5.45;;;26.10;75.00;;;;;;5072280;28;20025;-71
2022/05/14 02:22:31;;;;;;;7.38;5.32;;;26.30;75.00;;;;;;5072006;28;20111;-71
2022/05/14 02:24:58;;;;;;;6.57;5.00;;;26.70;73.60;;;;;;5072167;28;20056;-71
2022/05/14 02:27:25;;;;;;;7.00;5.82;;;26.90;75.60;;;;;;5072158;28;20036;-71
2022/05/14 02:29:54;;;;;;;6.15;4.90;;;27.40;70.10;;;;;;5067870;28;20047;-72
2022/05/14 02:32:24;;;;;;;8.35;6.35;;;27.40;71.30;;;;;;5071962;28;20382;-72
2022/05/14 02:34:53;;;;;;;6.72;5.22;;;27.30;68.80;;;;;;5072094;28;20061;-72
2022/05/14 02:37:25;;;;;;;5.68;5.00;;;27.10;70.10;;;;;;5072101;28;20096;-71
2022/05/14 02:39:53;;;;;;;6.40;5.10;;;27.00;70.80;;;;;;5071944;28;20041;-71
2022/05/14 02:42:20;;;;;;;7.32;5.35;;;27.00;71.60;;;;;;5072052;28;20467;-72
2022/05/14 02:44:47;;;;;;;9.52;6.18;;;27.30;73.20;;;;;;5072068;28;20024;-72
2022/05/14 02:47:15;;;;;;;7.28;5.43;;;27.40;68.70;;;;;;5070811;28;20027;-72
2022/05/14 02:49:42;;;;;;;9.85;5.55;;;27.30;72.00;;;;;;5071765;28;20024;-72
2022/05/14 02:52:10;;;;;;;6.35;5.05;;;27.60;69.40;;;;;;5070520;28;20024;-72
2022/05/14 02:54:38;;;;;;;7.70;5.22;;;27.80;68.70;;;;;;5071629;28;20020;-72
2022/05/14 02:57:06;;;;;;;9.57;5.35;;;27.90;68.10;;;;;;5072045;28;20029;-73
2022/05/14 02:59:34;;;;;;;8.63;5.22;;;27.60;68.80;;;;;;5072127;28;20107;-72
2022/05/14 03:02:03;;;;;;;5.13;4.57;;;27.30;70.80;;;;;;5071799;28;20024;-72
2022/05/14 03:04:36;;;;;;;8.15;4.72;;;27.50;69.90;;;;;;5059576;28;20052;-72
2022/05/14 03:07:08;;;;;;;8.20;4.60;;;27.70;70.10;;;;;;5075431;28;20047;-72
2022/05/14 03:09:36;;;;;;;7.20;4.68;;;27.80;71.20;;;;;;5075330;28;20028;-72
2022/05/14 03:12:04;;;;;;;5.35;4.43;;;28.10;67.20;;;;;;5075225;28;20024;-72
2022/05/14 03:14:32;;;;;;;7.35;4.47;;;28.10;67.90;;;;;;5075141;28;20132;-72
2022/05/14 03:16:59;;;;;;;5.13;3.78;;;28.10;68.40;;;;;;5075394;28;20024;-72
2022/05/14 03:19:26;;;;;;;6.25;4.18;;;28.40;71.10;;;;;;5073865;28;20020;-70
2022/05/14 03:21:54;;;;;;;7.72;3.70;;;28.70;68.30;;;;;;5068143;28;20024;-72
2022/05/14 03:24:21;;;;;;;7.88;4.07;;;29.30;69.70;;;;;;5074948;28;20052;-72
2022/05/14 03:26:49;;;;;;;7.72;3.45;;;29.90;67.20;;;;;;5075136;28;20497;-72
2022/05/14 03:29:16;;;;;;;5.85;3.63;;;30.00;65.10;;;;;;5074864;28;20029;-74
2022/05/14 03:31:45;;;;;;;6.10;3.88;;;30.00;66.00;;;;;;5074627;28;20024;-72
2022/05/14 03:34:13;;;;;;;4.63;3.72;;;30.30;62.50;;;;;;5074510;28;20041;-72
2022/05/14 03:36:41;;;;;;;5.63;3.80;;;29.60;63.90;;;;;;5074843;28;20032;-72
2022/05/14 03:39:09;;;;;;;4.40;3.35;;;29.30;65.30;;;;;;5072411;28;20025;-72
2022/05/14 03:41:38;;;;;;;8.98;3.83;;;29.30;64.70;;;;;;5074857;28;20122;-72
2022/05/14 03:44:06;;;;;;;7.13;2.95;;;29.50;66.00;;;;;;5074258;28;20378;-72
2022/05/14 03:46:34;;;;;;;4.03;2.85;;;29.80;63.30;;;;;;5074730;28;20059;-72
2022/05/14 03:49:01;;;;;;;3.88;2.90;;;29.80;62.70;;;;;;5074745;28;20048;-72
2022/05/14 03:51:31;;;;;;;8.35;3.30;;;29.80;64.30;;;;;;5074662;28;20398;-72
2022/05/14 03:54:00;;;;;;;6.03;3.03;;;29.20;67.40;;;;;;5072799;28;20032;-72
2022/05/14 03:56:27;;;;;;;6.22;3.00;;;29.80;65.60;;;;;;5071074;28;20028;-72
2022/05/14 03:58:55;;;;;;;3.47;2.78;;;30.20;63.50;;;;;;5074402;28;20035;-72
2022/05/14 04:01:22;;;;;;;5.28;3.17;;;30.50;65.80;;;;;;5074378;28;20071;-72
2022/05/14 04:03:50;;;;;;;4.32;2.70;;;31.00;63.00;;;;;;5074289;28;20175;-72
2022/05/14 04:06:17;;;;;;;4.22;2.58;;;31.00;64.40;;;;;;5074204;28;20031;-71
2022/05/14 04:08:44;;;;;;;2.08;1.90;;;30.70;64.30;;;;;;5074360;28;20031;-72
2022/05/14 04:11:12;;;;;;;2.53;1.80;;;30.90;60.90;;;;;;5072206;28;20056;-72
2022/05/14 04:13:39;;;;;;;3.47;1.90;;;30.60;61.30;;;;;;5074118;28;20051;-72
2022/05/14 04:16:07;;;;;;;2.28;2.03;;;30.50;63.70;;;;;;5073505;28;20119;-71
2022/05/14 04:18:34;;;;;;;3.47;1.63;;;30.40;61.80;;;;;;5074075;28;20074;-72
2022/05/14 04:21:02;;;;;;;1.90;1.75;;;30.40;62.90;;;;;;5073947;28;20032;-72
2022/05/14 04:23:31;;;;;;;6.38;2.80;;;30.30;62.40;;;;;;5073997;28;20020;-72
2022/05/14 04:26:00;;;;;;;6.07;2.75;;;30.70;61.20;;;;;;5074007;28;20024;-72
2022/05/14 04:28:28;;;;;;;5.88;2.70;;;30.70;60.50;;;;;;5070859;28;20032;-72
2022/05/14 04:30:55;;;;;;;4.07;1.98;;;30.70;63.60;;;;;;5073550;28;20020;-72
2022/05/14 04:33:25;;;;;;;4.47;2.90;;;30.50;62.70;;;;;;5073913;28;20469;-72
2022/05/14 04:35:53;;;;;;;4.80;2.75;;;30.60;61.10;;;;;;5073519;28;20037;-73
2022/05/14 04:38:20;;;;;;;6.35;3.28;;;30.60;62.60;;;;;;5073105;28;20529;-72
2022/05/14 04:40:47;;;;;;;6.57;2.90;;;30.30;61.90;;;;;;5073523;28;20394;-72
2022/05/14 04:43:15;;;;;;;3.88;2.20;;;30.30;62.80;;;;;;5069543;28;20017;-72
2022/05/14 04:45:43;;;;;;;4.53;2.50;;;30.40;62.70;;;;;;5069927;28;20074;-72
2022/05/14 04:48:11;;;;;;;4.20;2.95;;;30.70;62.90;;;;;;5073618;28;20370;-73
2022/05/14 04:50:39;;;;;;;3.85;2.78;;;30.40;64.00;;;;;;5073297;28;20017;-73
2022/05/14 04:53:07;;;;;;;3.40;2.75;;;30.50;65.90;;;;;;5073487;28;20025;-73
2022/05/14 04:55:35;;;;;;;5.55;2.30;;;31.00;64.00;;;;;;5073193;28;20036;-72
2022/05/14 04:58:06;;;;;;;5.75;2.85;;;31.20;61.10;;;;;;5073319;28;20017;-73
2022/05/14 05:00:34;;;;;;;3.60;2.67;;;31.00;62.20;;;;;;5073146;28;20039;-71
2022/05/14 05:03:17;;;;;;;7.90;2.55;;;30.70;61.80;;;;;;5062825;28;20033;-74
2022/05/14 05:05:52;;;;;;;3.28;2.67;;;30.40;63.70;;;;;;5060394;28;20021;-72
2022/05/14 05:08:20;;;;;;;4.50;2.30;;;30.70;64.70;;;;;;5073299;28;20028;-71
2022/05/14 05:10:48;;;;;;;3.78;2.47;;;30.60;63.60;;;;;;5073093;28;20513;-72
2022/05/14 05:13:20;;;;;;;2.05;1.70;;;30.50;62.70;;;;;;5072890;28;20028;-72
2022/05/14 05:15:47;;;;;;;4.88;2.38;;;30.40;63.80;;;;;;5072963;28;20064;-72
2022/05/14 05:18:15;;;;;;;3.45;2.60;;;30.50;63.00;;;;;;5072928;28;20100;-72
2022/05/14 05:20:44;;;;;;;5.18;2.60;;;30.30;63.10;;;;;;5065020;28;20021;-71
2022/05/14 05:23:14;;;;;;;3.75;1.90;;;30.20;63.80;;;;;;5072788;28;20090;-71
2022/05/14 05:25:42;;;;;;;2.78;2.08;;;30.30;64.40;;;;;;5072945;28;20436;-71
2022/05/14 05:28:10;;;;;;;4.28;2.17;;;30.50;63.00;;;;;;5071858;28;20051;-71
2022/05/14 05:30:37;;;;;;;1.88;1.23;;;30.50;62.70;;;;;;5072667;28;20025;-71
2022/05/14 05:33:09;;;;;;;2.28;1.58;;;30.40;64.20;;;;;;5059497;28;20020;-72
2022/05/14 05:35:37;;;;;;;2.70;1.10;;;30.30;63.60;;;;;;5072647;28;20029;-71
2022/05/14 05:38:04;;;;;;;1.25;0.90;;;30.30;62.60;;;;;;5060706;28;20024;-71
2022/05/14 05:40:33;;;;;;;4.05;1.58;;;29.70;64.90;;;;;;5072351;28;20063;-71
2022/05/14 05:43:00;;;;;;;3.00;1.45;;;29.80;63.90;;;;;;5072494;28;20028;-72
2022/05/14 05:45:30;;;;;;;2.55;1.30;;;29.70;64.50;;;;;;5072669;28;20028;-71
2022/05/14 05:47:57;;;;;;;1.98;1.00;;;29.80;64.50;;;;;;5072422;28;20021;-72
2022/05/14 05:50:25;;;;;;;2.10;1.05;;;29.70;65.10;;;;;;5071646;28;20494;-72
2022/05/14 05:52:54;;;;;;;4.10;1.23;;;29.70;64.60;;;;;;5065099;28;20043;-72
2022/05/14 05:58:07;;;;;;;3.30;0.95;;;29.40;64.40;;;;;;5072848;28;20032;-72
2022/05/14 06:00:36;;;;;;;3.53;1.40;;;29.40;65.30;;;;;;5072310;28;20497;-72
2022/05/14 06:03:03;;;;;;;2.80;1.05;;;29.40;65.10;;;;;;5072496;28;20048;-72
2022/05/14 06:05:31;;;;;;;1.55;0.90;;;29.10;65.40;;;;;;5072293;28;20029;-72
2022/05/14 06:07:58;;;;;;;2.05;0.98;;;28.50;66.20;;;;;;5068414;28;20074;-71
2022/05/14 06:10:25;;;;;;;2.50;0.90;;;28.20;66.80;;;;;;5063826;28;20108;-72
2022/05/14 06:12:53;;;;;;;3.22;1.20;;;27.90;67.90;;;;;;5069118;28;20051;-72
2022/05/14 06:15:21;;;;;;;1.85;1.13;;;27.60;69.40;;;;;;5072316;28;20037;-72
2022/05/14 06:17:48;;;;;;;4.57;3.47;;;27.30;70.80;;;;;;5058860;28;20059;-71
2022/05/14 06:20:17;;;;;;;9.30;4.05;;;27.10;73.70;;;;;;5072167;28;20399;-71
2022/05/14 06:22:45;;;;;;;5.88;3.60;;;26.60;75.30;;;;;;5071958;28;20024;-71
2022/05/14 06:25:13;;;;;;;15.77;7.15;;;26.30;77.50;;;;;;5072226;28;20029;-71
2022/05/14 06:27:41;;;;;;;7.18;4.72;;;26.20;77.70;;;;;;5065544;28;20029;-71
2022/05/14 06:30:08;;;;;;;5.43;4.30;;;25.80;79.10;;;;;;5070262;28;20031;-72
2022/05/14 06:32:36;;;;;;;7.25;5.45;;;25.40;80.90;;;;;;5071978;28;20044;-71
2022/05/14 06:35:06;;;;;;;7.07;4.85;;;25.10;81.90;;;;;;5071946;28;20028;-71
2022/05/14 06:37:34;;;;;;;10.70;5.45;;;24.80;83.30;;;;;;5057223;28;20103;-71
2022/05/14 06:40:01;;;;;;;6.15;4.90;;;24.60;84.50;;;;;;5064319;28;20033;-72
2022/05/14 06:42:29;;;;;;;7.03;5.60;;;24.40;85.20;;;;;;5075974;28;20202;-71
2022/05/14 06:44:57;;;;;;;6.47;5.00;;;24.10;86.20;;;;;;5066517;28;20032;-71
2022/05/14 06:47:24;;;;;;;8.27;5.28;;;24.00;86.70;;;;;;5059903;28;20109;-72
2022/05/14 06:49:51;;;;;;;8.40;6.32;;;23.80;87.60;;;;;;5075790;28;20443;-72
2022/05/14 06:52:20;;;;;;;7.68;6.18;;;23.70;88.40;;;;;;5074500;28;20033;-71
2022/05/14 06:54:50;;;;;;;10.02;5.88;;;23.50;89.30;;;;;;5075518;28;20025;-72
2022/05/14 06:57:18;;;;;;;6.68;5.63;;;23.30;89.80;;;;;;5074431;28;20082;-71
2022/05/14 06:59:45;;;;;;;9.93;6.65;;;23.20;90.40;;;;;;5074754;28;20021;-73
2022/05/14 07:02:14;;;;;;;8.23;6.43;;;23.00;90.80;;;;;;5063933;28;20078;-73
2022/05/14 07:07:30;;;;;;;13.82;7.78;;;22.80;91.20;;;;;;5064913;28;20509;-71
2022/05/14 07:09:59;;;;;;;9.57;7.90;;;22.70;91.80;;;;;;5074258;28;20024;-72
2022/05/14 07:12:27;;;;;;;8.63;7.07;;;22.50;92.00;;;;;;5075425;28;20056;-72
2022/05/14 07:14:54;;;;;;;9.90;7.75;;;22.40;92.10;;;;;;5064860;28;20037;-71
2022/05/14 07:17:22;;;;;;;10.45;7.88;;;22.30;92.40;;;;;;5075354;28;20028;-71
2022/05/14 07:19:49;;;;;;;12.05;9.95;;;22.10;92.90;;;;;;5072793;28;20032;-72
2022/05/14 07:22:17;;;;;;;10.70;8.30;;;22.00;93.10;;;;;;5073995;28;20024;-71
2022/05/14 07:24:45;;;;;;;11.90;8.52;;;21.90;93.30;;;;;;5057271;28;20025;-72
2022/05/14 07:27:13;;;;;;;11.43;9.00;;;21.90;93.40;;;;;;5072668;28;20017;-72
2022/05/14 07:29:43;;;;;;;14.18;8.75;;;21.90;93.40;;;;;;5074648;28;20500;-71
2022/05/14 07:32:12;;;;;;;14.05;7.80;;;21.80;93.50;;;;;;5075061;28;20031;-71
2022/05/14 07:34:41;;;;;;;15.68;8.95;;;21.80;93.60;;;;;;5069650;28;20032;-71
2022/05/14 07:37:33;;;;;;;10.13;7.97;;;21.80;93.80;;;;;;5074165;28;20024;-73
2022/05/14 07:40:11;;;;;;;11.60;9.32;;;21.70;93.70;;;;;;5060848;28;20482;-72
2022/05/14 07:42:46;;;;;;;12.35;8.02;;;21.60;93.90;;;;;;5074720;28;20387;-72
2022/05/14 07:45:19;;;;;;;11.90;8.85;;;21.50;93.90;;;;;;5074336;28;20024;-71
2022/05/14 07:47:47;;;;;;;10.10;8.50;;;21.40;94.20;;;;;;5074313;28;20029;-70
2022/05/14 07:50:14;;;;;;;11.23;9.00;;;21.30;94.30;;;;;;5074083;28;20039;-73
2022/05/14 07:52:43;;;;;;;12.88;9.57;;;21.20;94.50;;;;;;5066380;28;20025;-71
2022/05/14 07:55:11;;;;;;;16.20;9.40;;;21.20;94.60;;;;;;5063337;28;20452;-73
2022/05/14 07:57:38;;;;;;;12.45;9.65;;;21.10;94.50;;;;;;5074432;28;20035;-72
2022/05/14 08:00:06;;;;;;;12.50;8.82;;;21.10;94.50;;;;;;5071253;28;20033;-71
2022/05/14 08:02:34;;;;;;;13.57;9.90;;;21.10;94.50;;;;;;5072885;28;20039;-72
2022/05/14 08:05:04;;;;;;;15.27;10.88;;;21.00;94.50;;;;;;5072318;28;20111;-70
2022/05/14 08:07:32;;;;;;;13.23;9.80;;;21.00;94.50;;;;;;5073028;28;20052;-72
2022/05/14 08:10:00;;;;;;;18.17;10.90;;;20.90;94.60;;;;;;5073675;28;20063;-72
2022/05/14 08:12:34;;;;;;;15.98;11.82;;;20.80;94.80;;;;;;5074150;28;20016;-72
2022/05/14 08:15:03;;;;;;;19.23;12.00;;;20.70;94.90;;;;;;5072678;28;20063;-72
2022/05/14 08:17:31;;;;;;;16.15;11.68;;;20.60;95.00;;;;;;5074040;28;20029;-72
2022/05/14 08:19:58;;;;;;;15.13;11.27;;;20.50;95.00;;;;;;5074170;28;20075;-72
2022/05/14 08:25:11;;;;;;;15.93;11.88;;;20.30;95.40;;;;;;5067343;28;20141;-72
2022/05/14 08:27:45;;;;;;;16.30;12.13;;;20.30;96.00;;;;;;5062924;28;20466;-72
2022/05/14 08:30:18;;;;;;;16.55;11.43;;;20.20;95.90;;;;;;5071884;28;20067;-72
2022/05/14 08:32:45;;;;;;;17.70;12.95;;;20.20;95.90;;;;;;5073576;28;20017;-72
2022/05/14 08:35:14;;;;;;;20.75;13.90;;;20.20;96.40;;;;;;5059278;28;20093;-72
2022/05/14 08:37:42;;;;;;;20.48;13.90;;;20.10;96.50;;;;;;5073723;28;20025;-72
2022/05/14 08:40:18;;;;;;;17.77;13.50;;;20.10;96.50;;;;;;5073427;28;20517;-71
2022/05/14 08:42:49;;;;;;;21.52;14.32;;;20.10;96.60;;;;;;5073214;28;20489;-71
2022/05/14 08:45:19;;;;;;;19.60;13.65;;;20.00;96.80;;;;;;5071010;28;20636;-71
2022/05/14 08:47:57;;;;;;;18.88;13.38;;;20.10;96.90;;;;;;5073405;28;20027;-72
2022/05/14 08:50:50;;;;;;;19.73;14.10;;;20.10;97.20;;;;;;5073092;28;20035;-72
2022/05/14 08:53:22;;;;;;;18.48;12.15;;;20.10;97.10;;;;;;5073403;28;20017;-71
2022/05/14 08:56:21;;;;;;;19.33;12.95;;;20.10;97.10;;;;;;5073216;28;20044;-72
2022/05/14 08:59:06;;;;;;;;;;;20.10;97.30;;;;;;5059445;28;20032;-71
2022/05/14 09:01:38;;;;;;;20.42;11.35;;;20.20;97.40;;;;;;5071756;28;19905;-71
2022/05/14 09:04:08;;;;;;;24.23;13.07;;;20.20;97.40;;;;;;5073057;28;20025;-71
2022/05/14 09:06:37;;;;;;;22.25;14.38;;;20.20;97.30;;;;;;5073157;28;20032;-72
2022/05/14 09:12:10;;;;;;;21.42;13.32;;;20.10;97.20;;;;;;5072261;28;20052;-77
2022/05/14 09:14:39;;;;;;;19.63;14.38;;;20.00;97.10;;;;;;5069421;28;20498;-76
2022/05/14 09:17:29;;;;;;;29.65;18.40;;;19.90;97.10;;;;;;5067856;28;20045;-77
2022/05/14 09:19:58;;;;;;;28.23;17.08;;;19.80;97.70;;;;;;5061795;28;20064;-77
2022/05/14 09:22:47;;;;;;;23.45;16.00;;;19.90;97.90;;;;;;5062278;28;20027;-76
2022/05/14 09:25:32;;;;;;;23.17;15.68;;;19.80;97.80;;;;;;5049705;28;20036;-76
2022/05/14 09:28:04;;;;;;;23.20;15.60;;;19.60;97.60;;;;;;5054114;28;20418;-77
2022/05/14 09:30:52;;;;;;;24.25;15.75;;;19.60;97.80;;;;;;5056216;28;20127;-75
2022/05/14 09:33:45;;;;;;;;;;;19.50;97.70;;;;;;5063617;28;20560;-76
2022/05/14 09:36:18;;;;;;;24.88;17.08;;;19.50;98.00;;;;;;5066524;28;19916;-76
2022/05/14 09:38:45;;;;;;;30.50;17.45;;;19.40;98.00;;;;;;5068876;28;20070;-76
2022/05/14 09:41:21;;;;;;;31.13;19.63;;;19.40;98.20;;;;;;5064811;28;20032;-77
2022/05/14 09:43:54;;;;;;;35.50;21.60;;;19.30;98.20;;;;;;5070190;28;20565;-77
2022/05/14 09:46:34;;;;;;;33.88;21.45;;;19.30;98.40;;;;;;5066247;28;20033;-75
2022/05/14 09:49:07;;;;;;;34.97;19.10;;;19.30;98.60;;;;;;5064844;28;20039;-76
2022/05/14 09:52:04;;;;;;;29.35;18.60;;;19.40;98.90;;;;;;5066083;28;20033;-77
2022/05/14 09:54:47;;;;;;;31.00;17.42;;;19.50;99.30;;;;;;5071057;28;20363;-76
2022/05/14 09:57:33;;;;;;;27.98;16.45;;;19.50;99.20;;;;;;5072493;28;20059;-76
2022/05/14 10:00:44;;;;;;;25.33;15.68;;;19.50;99.20;;;;;;5072356;28;20105;-77
2022/05/14 10:03:44;;;;;;;30.50;15.50;;;19.60;99.30;;;;;;5072219;28;20052;-76
2022/05/14 10:06:37;;;;;;;28.73;16.20;;;19.70;99.30;;;;;;5072550;28;20066;-77
2022/05/14 10:09:09;;;;;;;25.88;15.88;;;19.80;99.40;;;;;;5064982;28;20596;-77
2022/05/14 10:11:45;;;;;;;25.45;15.20;;;19.90;99.30;;;;;;5072368;28;20551;-76
2022/05/14 10:14:29;;;;;;;25.60;14.98;;;19.90;98.90;;;;;;5071846;28;20064;-75
2022/05/14 10:17:19;;;;;;;24.25;14.77;;;19.90;98.60;;;;;;5076440;28;20029;-75
2022/05/14 10:20:06;;;;;;;28.50;17.67;;;19.80;98.50;;;;;;5076508;28;20474;-76
2022/05/14 10:28:48;;;;;;;31.40;19.42;;;19.90;97.90;;;;;;5069457;28;20120;-76
2022/05/14 10:31:27;;;;;;;30.77;20.25;;;19.80;97.70;;;;;;5074167;28;20078;-76
2022/05/14 10:33:58;;;;;;;36.13;21.63;;;19.70;97.80;;;;;;5074782;28;20024;-77
2022/05/14 10:36:35;;;;;;;30.92;22.30;;;19.60;97.90;;;;;;5071374;28;20439;-78
2022/05/14 10:39:41;;;;;;;36.03;23.97;;;19.60;98.10;;;;;;5068206;28;20031;-77
2022/05/14 10:42:25;;;;;;;35.33;22.00;;;19.60;98.10;;;;;;5068902;28;20063;-77
2022/05/14 10:45:08;;;;;;;36.97;22.63;;;19.60;98.10;;;;;;5075776;28;20032;-78
2022/05/14 10:47:39;;;;;;;45.38;25.85;;;19.40;97.90;;;;;;5075820;28;20478;-78
2022/05/14 10:50:14;;;;;;;50.08;27.27;;;19.40;98.20;;;;;;5075888;28;20032;-78
2022/05/14 10:52:45;;;;;;;44.33;24.10;;;19.20;98.30;;;;;;5075276;28;20493;-76
2022/05/14 10:55:25;;;;;;;36.53;22.88;;;19.20;98.30;;;;;;5070423;28;20040;-76
2022/05/14 10:58:00;;;;;;;39.00;23.83;;;19.00;98.20;;;;;;5068964;28;20023;-77
2022/05/14 11:00:30;;;;;;;38.45;23.60;;;18.90;98.20;;;;;;5063051;28;20036;-77
2022/05/14 11:03:14;;;;;;;45.17;26.48;;;18.70;98.30;;;;;;5074780;28;20059;-78
2022/05/14 11:06:03;;;;;;;47.35;25.17;;;18.60;98.40;;;;;;5073617;28;20110;-78
2022/05/14 11:08:43;;;;;;;48.85;27.13;;;18.50;98.60;;;;;;5070741;28;20479;-77
2022/05/14 11:11:25;;;;;;;71.32;36.05;;;18.40;98.70;;;;;;5070760;28;20035;-78
2022/05/14 11:14:07;;;;;;;60.25;32.58;;;18.40;98.90;;;;;;5073255;28;20016;-76
2022/05/14 11:16:48;;;;;;;63.17;31.85;;;18.50;99.20;;;;;;5073584;28;20029;-79
2022/05/14 11:19:28;;;;;;;59.95;30.17;;;18.60;99.40;;;;;;5064052;28;20028;-78
2022/05/14 11:21:56;;;;;;;74.55;34.40;;;18.60;99.40;;;;;;5075752;28;20037;-78
2022/05/14 11:24:41;;;;;;;65.60;32.78;;;18.50;99.50;;;;;;5070805;28;20417;-78
2022/05/14 11:27:10;;;;;;;51.30;29.20;;;18.50;99.60;;;;;;5069959;28;20497;-78
2022/05/14 11:30:07;;;;;;;55.72;29.17;;;18.60;99.90;;;;;;5065301;28;20025;-77
2022/05/14 11:32:50;;;;;;;51.95;29.08;;;18.60;99.90;;;;;;5059966;28;20029;-77
2022/05/14 11:35:19;;;;;;;75.10;36.65;;;18.60;99.90;;;;;;5058289;28;20041;-78
2022/05/14 11:37:50;;;;;;;72.93;35.50;;;18.70;99.90;;;;;;5061504;28;20017;-79
2022/05/14 11:40:24;;;;;;;66.18;32.20;;;18.70;99.90;;;;;;5067455;28;20384;-78
2022/05/14 11:43:11;;;;;;;60.20;30.48;;;18.60;99.90;;;;;;5066245;28;20024;-79
2022/05/14 11:45:49;;;;;;;67.35;30.30;;;18.50;99.80;;;;;;5070196;28;20390;-77
2022/05/14 11:48:25;;;;;;;77.32;33.63;;;18.30;99.80;;;;;;5061173;28;20145;-77
2022/05/14 11:51:16;;;;;;;67.68;32.40;;;18.20;99.80;;;;;;5066766;28;20025;-79
2022/05/14 11:54:11;;;;;;;81.03;37.13;;;18.20;99.90;;;;;;5073547;28;20025;-77
2022/05/14 11:56:48;;;;;;;69.05;34.20;;;18.30;99.90;;;;;;5033354;28;20048;-78
2022/05/14 11:59:22;;;;;;;73.72;35.95;;;18.30;99.90;;;;;;5071139;28;20108;-79
2022/05/14 12:01:51;;;;;;;77.35;36.20;;;18.40;99.90;;;;;;5073688;28;20029;-77
2022/05/14 12:04:27;;;;;;;86.03;37.80;;;18.40;99.90;;;;;;5061927;28;20482;-78
2022/05/14 12:07:25;;;;;;;85.97;38.28;;;18.40;99.90;;;;;;5057312;28;20025;-77
2022/05/14 12:10:25;;;;;;;80.43;36.63;;;18.30;99.90;;;;;;5069635;28;20024;-77
2022/05/14 12:12:58;;;;;;;86.53;37.53;;;18.30;99.90;;;;;;5053964;28;20276;-77
2022/05/14 12:15:26;;;;;;;99.85;41.85;;;18.30;99.90;;;;;;5070110;28;20043;-78
2022/05/14 12:17:57;;;;;;;105.63;42.95;;;18.30;99.90;;;;;;5055461;28;20120;-78
2022/05/14 12:20:30;;;;;;;112.60;44.97;;;18.20;99.90;;;;;;5063450;28;20071;-77
2022/05/14 12:23:04;;;;;;;82.18;35.05;;;18.10;99.90;;;;;;5070997;28;20029;-77
2022/05/14 12:25:43;;;;;;;87.03;36.42;;;17.90;99.90;;;;;;5062773;28;20070;-76
2022/05/14 12:28:21;;;;;;;143.05;61.05;;;17.80;99.90;;;;;;5067470;28;20119;-77
2022/05/14 12:33:38;;;;;;;114.40;47.53;;;17.70;99.90;;;;;;5071643;28;19915;-76
2022/05/14 12:36:06;;;;;;;124.88;50.08;;;17.60;99.90;;;;;;5060376;28;20037;-79
2022/05/14 12:38:41;;;;;;;131.55;49.80;;;17.60;99.90;;;;;;5058935;28;20037;-78
2022/05/14 12:41:21;;;;;;;104.35;44.15;;;17.70;99.90;;;;;;5070860;28;20089;-78
2022/05/14 12:43:50;;;;;;;137.05;54.35;;;17.70;99.90;;;;;;5060584;28;20021;-78
2022/05/14 12:46:19;;;;;;;95.55;39.17;;;17.80;99.90;;;;;;5072399;28;20032;-78
2022/05/14 12:48:54;;;;;;;119.85;46.30;;;17.70;99.90;;;;;;5058397;28;20133;-78
2022/05/14 12:51:24;;;;;;;103.60;42.17;;;17.60;99.90;;;;;;5056752;28;20018;-78
2022/05/14 12:53:53;;;;;;;130.38;50.72;;;17.40;99.90;;;;;;5071493;28;20040;-78
2022/05/14 12:56:23;;;;;;;118.55;49.65;;;17.30;99.90;;;;;;5073018;28;20043;-77
2022/05/14 12:58:51;;;;;;;115.68;48.00;;;17.40;99.90;;;;;;5059083;28;20056;-77
2022/05/14 13:01:21;;;;;;;105.00;46.45;;;17.40;99.90;;;;;;5066446;28;20029;-76
2022/05/14 13:04:01;;;;;;;125.43;50.45;;;17.50;99.90;;;;;;5071808;28;20639;-77
2022/05/14 13:06:34;;;;;;;113.20;47.55;;;17.70;99.90;;;;;;5067864;28;20036;-78
2022/05/14 13:09:07;;;;;;;109.05;45.97;;;17.80;99.90;;;;;;5059187;28;20014;-77
2022/05/14 13:11:37;;;;;;;131.52;50.08;;;17.80;99.90;;;;;;5061863;28;20037;-77
2022/05/14 13:14:24;;;;;;;115.40;46.30;;;17.90;99.90;;;;;;5068131;28;20025;-76
2022/05/14 13:17:03;;;;;;;98.82;40.13;;;17.80;99.90;;;;;;5066311;28;20040;-77
2022/05/14 13:19:55;;;;;;;137.15;52.15;;;17.60;99.90;;;;;;5067963;28;20025;-76
2022/05/14 13:22:41;;;;;;;141.15;55.45;;;17.50;99.90;;;;;;5070413;28;20028;-78
2022/05/14 13:25:31;;;;;;;139.13;51.97;;;17.50;99.90;;;;;;5068375;28;20030;-76
2022/05/14 13:28:18;;;;;;;139.45;52.35;;;17.50;99.90;;;;;;5060439;28;20022;-78